createdAt,value
2018-09-19T00:01:49.028Z,23.20
2018-09-19T00:04:17.333Z,23.20
2018-09-19T00:06:45.623Z,23.20
2018-09-19T00:09:13.953Z,23.20
2018-09-19T00:11:42.261Z,23.20
2018-09-19T00:14:11.349Z,23.20
2018-09-19T00:16:39.809Z,23.20
2018-09-19T00:19:08.127Z,23.10
2018-09-19T00:21:36.439Z,23.10
2018-09-19T00:24:04.725Z,23.20
2018-09-19T00:26:33.057Z,23.20
2018-09-19T00:29:01.333Z,23.10
2018-09-19T00:31:30.638Z,23.10
2018-09-19T00:33:58.935Z,23.10
2018-09-19T00:36:27.238Z,23.10
2018-09-19T00:38:55.551Z,23.10
2018-09-19T00:41:23.832Z,23.10
2018-09-19T00:43:53.222Z,23.00
2018-09-19T00:46:21.549Z,23.00
2018-09-19T00:48:49.855Z,23.00
2018-09-19T00:51:18.137Z,23.00
2018-09-19T00:53:46.469Z,23.00
2018-09-19T00:56:14.748Z,23.00
2018-09-19T00:58:43.038Z,23.00
2018-09-19T01:01:11.318Z,23.00
2018-09-19T01:03:40.625Z,23.00
2018-09-19T01:06:08.913Z,23.00
2018-09-19T01:08:38.242Z,23.00
2018-09-19T01:11:06.567Z,23.00
2018-09-19T01:13:34.867Z,23.00
2018-09-19T01:16:03.185Z,23.00
2018-09-19T01:18:31.528Z,22.90
2018-09-19T01:20:59.841Z,22.90
2018-09-19T01:23:28.144Z,22.90
2018-09-19T01:25:56.456Z,22.90
2018-09-19T01:28:25.806Z,22.80
2018-09-19T01:30:54.163Z,22.80
2018-09-19T01:33:22.450Z,22.80
2018-09-19T01:35:50.746Z,22.80
2018-09-19T01:38:19.066Z,22.80
2018-09-19T01:40:47.361Z,22.70
2018-09-19T01:43:15.677Z,22.70
2018-09-19T01:45:43.964Z,22.70
2018-09-19T01:48:12.301Z,22.70
2018-09-19T01:50:40.634Z,22.80
2018-09-19T01:53:08.933Z,22.80
2018-09-19T01:55:37.237Z,22.80
2018-09-19T01:58:05.535Z,22.80
2018-09-19T02:00:33.826Z,22.80
2018-09-19T02:03:02.192Z,22.70
2018-09-19T02:05:30.492Z,22.70
2018-09-19T02:07:58.814Z,22.70
2018-09-19T02:10:27.128Z,22.70
2018-09-19T02:12:56.449Z,22.60
2018-09-19T02:15:24.765Z,22.70
2018-09-19T02:17:53.071Z,22.70
2018-09-19T02:20:21.379Z,22.70
2018-09-19T02:22:49.686Z,22.70
2018-09-19T02:25:17.994Z,22.70
2018-09-19T02:27:46.287Z,22.70
2018-09-19T02:30:14.588Z,22.70
2018-09-19T02:32:43.918Z,22.80
2018-09-19T02:35:12.281Z,22.70
2018-09-19T02:37:40.605Z,22.70
2018-09-19T02:40:09.965Z,22.70
2018-09-19T02:42:38.271Z,22.70
2018-09-19T02:45:06.560Z,22.60
2018-09-19T02:47:34.883Z,22.60
2018-09-19T02:50:03.225Z,22.60
2018-09-19T02:52:31.503Z,22.60
2018-09-19T02:54:59.834Z,22.60
2018-09-19T02:57:28.138Z,22.60
2018-09-19T02:59:57.435Z,22.60
2018-09-19T03:02:25.946Z,22.50
2018-09-19T03:04:54.269Z,22.50
2018-09-19T03:07:22.595Z,22.50
2018-09-19T03:09:50.941Z,22.60
2018-09-19T03:12:19.254Z,22.50
2018-09-19T03:14:47.589Z,22.50
2018-09-19T03:17:15.998Z,22.50
2018-09-19T03:19:44.227Z,22.60
2018-09-19T03:22:12.594Z,22.50
2018-09-19T03:24:41.932Z,22.50
2018-09-19T03:27:10.266Z,22.40
2018-09-19T03:29:38.567Z,22.40
2018-09-19T03:32:06.862Z,22.50
2018-09-19T03:34:35.176Z,22.50
2018-09-19T03:37:03.471Z,22.40
2018-09-19T03:39:31.767Z,22.30
2018-09-19T03:42:00.088Z,22.40
2018-09-19T03:44:28.406Z,22.40
2018-09-19T03:46:58.275Z,22.50
2018-09-19T03:49:26.659Z,22.40
2018-09-19T03:51:54.983Z,22.40
2018-09-19T03:54:23.296Z,22.40
2018-09-19T03:56:51.635Z,22.40
2018-09-19T03:59:20.446Z,22.40
2018-09-19T04:01:48.804Z,22.40
2018-09-19T04:04:17.147Z,22.40
2018-09-19T04:06:45.495Z,22.40
2018-09-19T04:09:14.362Z,22.40
2018-09-19T04:11:42.757Z,22.30
2018-09-19T04:14:12.685Z,22.20
2018-09-19T04:16:42.282Z,22.30
2018-09-19T04:19:10.641Z,22.30
2018-09-19T04:21:46.925Z,22.30
2018-09-19T04:24:15.249Z,22.30
2018-09-19T04:26:43.542Z,22.40
2018-09-19T04:29:11.888Z,22.30
2018-09-19T04:31:40.308Z,22.30
2018-09-19T04:34:09.690Z,22.30
2018-09-19T04:36:39.029Z,22.30
2018-09-19T04:39:08.829Z,22.30
2018-09-19T04:41:37.323Z,22.30
2018-09-19T04:44:06.111Z,22.20
2018-09-19T04:46:34.434Z,22.20
2018-09-19T04:49:02.731Z,22.20
2018-09-19T04:51:31.062Z,22.20
2018-09-19T04:53:59.349Z,22.30
2018-09-19T04:56:27.710Z,22.20
2018-09-19T04:58:56.064Z,22.20
2018-09-19T05:01:24.359Z,22.10
2018-09-19T05:03:52.756Z,22.20
2018-09-19T05:06:21.054Z,22.20
2018-09-19T05:08:49.388Z,22.20
2018-09-19T05:11:17.733Z,22.30
2018-09-19T05:13:45.998Z,22.30
2018-09-19T05:16:14.341Z,22.20
2018-09-19T05:18:42.645Z,22.20
2018-09-19T05:21:11.073Z,22.30
2018-09-19T05:23:40.441Z,22.30
2018-09-19T05:26:09.777Z,22.30
2018-09-19T05:28:39.082Z,22.30
2018-09-19T05:31:07.398Z,22.20
2018-09-19T05:33:35.676Z,22.20
2018-09-19T05:36:03.936Z,22.20
2018-09-19T05:38:32.276Z,22.10
2018-09-19T05:41:00.559Z,22.10
2018-09-19T05:43:28.861Z,22.10
2018-09-19T05:45:57.167Z,22.10
2018-09-19T05:48:25.493Z,22.10
2018-09-19T05:50:53.893Z,22.10
2018-09-19T05:53:22.205Z,22.00
2018-09-19T05:55:50.510Z,22.10
2018-09-19T05:58:18.810Z,22.10
2018-09-19T06:00:47.121Z,22.10
2018-09-19T06:03:16.480Z,22.10
2018-09-19T06:05:44.797Z,22.10
2018-09-19T06:08:13.075Z,22.10
2018-09-19T06:10:41.378Z,22.10
2018-09-19T06:13:09.699Z,22.10
2018-09-19T06:15:38.026Z,22.20
2018-09-19T06:18:07.366Z,22.10
2018-09-19T06:20:35.767Z,22.00
2018-09-19T06:23:04.072Z,22.00
2018-09-19T06:25:32.378Z,22.10
2018-09-19T06:28:01.721Z,22.10
2018-09-19T06:30:30.024Z,22.10
2018-09-19T06:32:58.396Z,22.10
2018-09-19T06:35:26.646Z,22.10
2018-09-19T06:37:54.953Z,22.10
2018-09-19T06:40:23.284Z,22.20
2018-09-19T06:42:51.608Z,22.10
2018-09-19T06:45:20.046Z,22.10
2018-09-19T06:47:49.377Z,22.00
2018-09-19T06:50:17.687Z,22.00
2018-09-19T06:52:46.001Z,22.00
2018-09-19T06:55:14.294Z,22.10
2018-09-19T06:57:42.617Z,22.10
2018-09-19T07:00:10.919Z,22.20
2018-09-19T07:02:39.270Z,22.20
2018-09-19T07:05:07.590Z,22.20
2018-09-19T07:07:36.019Z,22.30
2018-09-19T07:10:04.290Z,22.20
2018-09-19T07:12:32.595Z,22.20
2018-09-19T07:15:01.969Z,22.10
2018-09-19T07:17:30.270Z,22.10
2018-09-19T07:19:58.630Z,22.20
2018-09-19T07:22:26.934Z,22.20
2018-09-19T07:24:55.245Z,22.30
2018-09-19T07:27:23.570Z,22.30
2018-09-19T07:29:51.892Z,22.20
2018-09-19T07:32:20.200Z,22.20
2018-09-19T07:34:48.504Z,22.20
2018-09-19T07:37:16.818Z,22.20
2018-09-19T07:39:45.130Z,22.20
2018-09-19T07:42:13.474Z,22.30
2018-09-19T07:44:41.798Z,22.30
2018-09-19T07:47:10.138Z,22.40
2018-09-19T07:49:38.458Z,22.40
2018-09-19T07:52:07.233Z,22.30
2018-09-19T07:54:35.584Z,22.30
2018-09-19T07:57:03.891Z,22.40
2018-09-19T07:59:32.183Z,22.40
2018-09-19T08:02:00.538Z,22.40
2018-09-19T08:04:28.837Z,22.40
2018-09-19T08:06:57.201Z,22.40
2018-09-19T08:09:25.525Z,22.30
2018-09-19T08:11:53.842Z,22.40
2018-09-19T08:14:22.155Z,22.40
2018-09-19T08:16:50.555Z,22.40
2018-09-19T08:19:18.795Z,22.40
2018-09-19T08:21:47.095Z,22.40
2018-09-19T08:24:16.461Z,22.50
2018-09-19T08:26:44.771Z,22.50
2018-09-19T08:29:13.083Z,22.50
2018-09-19T08:31:41.458Z,22.50
2018-09-19T08:34:09.790Z,22.50
2018-09-19T08:36:39.097Z,22.50
2018-09-19T08:39:08.482Z,22.50
2018-09-19T08:41:36.797Z,22.50
2018-09-19T08:44:05.350Z,22.50
2018-09-19T08:46:33.681Z,22.50
2018-09-19T08:49:01.987Z,22.50
2018-09-19T08:51:30.359Z,22.50
2018-09-19T08:53:58.684Z,22.60
2018-09-19T08:56:27.051Z,22.60
2018-09-19T08:58:55.388Z,22.60
2018-09-19T09:01:23.733Z,22.60
2018-09-19T09:03:52.057Z,22.60
2018-09-19T09:06:20.378Z,22.60
2018-09-19T09:08:48.710Z,22.60
2018-09-19T09:11:17.061Z,22.60
2018-09-19T09:13:45.410Z,22.60
2018-09-19T09:16:13.700Z,22.60
2018-09-19T09:18:42.011Z,22.60
2018-09-19T09:21:10.335Z,22.60
2018-09-19T09:23:38.662Z,22.60
2018-09-19T09:26:07.059Z,22.60
2018-09-19T09:28:36.346Z,22.60
2018-09-19T09:31:04.854Z,22.70
2018-09-19T09:33:33.178Z,22.70
2018-09-19T09:36:01.500Z,22.70
2018-09-19T09:38:29.818Z,22.70
2018-09-19T09:40:58.119Z,22.70
2018-09-19T09:43:26.518Z,22.70
2018-09-19T09:45:54.898Z,22.70
2018-09-19T09:48:23.191Z,22.70
2018-09-19T09:50:52.537Z,22.70
2018-09-19T09:53:20.991Z,22.70
2018-09-19T09:55:50.214Z,22.70
2018-09-19T09:58:18.534Z,22.70
2018-09-19T10:00:46.855Z,22.70
2018-09-19T10:03:15.190Z,22.70
2018-09-19T10:05:43.766Z,22.70
2018-09-19T10:08:12.180Z,22.70
2018-09-19T10:10:40.469Z,22.70
2018-09-19T10:13:08.781Z,22.70
2018-09-19T10:15:37.141Z,22.70
2018-09-19T10:18:05.510Z,22.70
2018-09-19T10:20:33.809Z,22.70
2018-09-19T10:23:02.129Z,22.70
2018-09-19T10:25:30.676Z,22.70
2018-09-19T10:28:00.010Z,22.70
2018-09-19T10:30:28.375Z,22.70
2018-09-19T10:32:56.706Z,22.70
2018-09-19T10:35:25.091Z,22.70
2018-09-19T10:37:53.355Z,22.70
2018-09-19T10:40:21.693Z,22.70
2018-09-19T10:42:50.008Z,22.80
2018-09-19T10:45:18.339Z,22.70
2018-09-19T10:47:47.841Z,22.80
2018-09-19T10:50:16.198Z,22.70
2018-09-19T10:52:44.591Z,22.80
2018-09-19T10:55:12.915Z,22.80
2018-09-19T10:57:42.310Z,22.80
2018-09-19T11:00:10.636Z,22.80
2018-09-19T11:02:39.969Z,22.80
2018-09-19T11:05:08.329Z,22.80
2018-09-19T11:07:36.643Z,22.80
2018-09-19T11:10:05.399Z,22.80
2018-09-19T11:12:33.706Z,22.80
2018-09-19T11:15:02.032Z,22.80
2018-09-19T11:17:31.909Z,22.80
2018-09-19T11:20:00.205Z,22.80
2018-09-19T11:22:28.544Z,22.80
2018-09-19T11:24:56.845Z,22.80
2018-09-19T11:27:25.147Z,22.80
2018-09-19T11:29:53.977Z,22.80
2018-09-19T11:32:22.418Z,22.80
2018-09-19T11:34:50.777Z,22.80
2018-09-19T11:37:19.094Z,22.90
2018-09-19T11:39:47.413Z,22.90
2018-09-19T11:42:15.756Z,22.90
2018-09-19T11:44:44.081Z,22.90
2018-09-19T11:47:12.401Z,22.90
2018-09-19T11:49:40.683Z,22.90
2018-09-19T11:52:09.017Z,22.90
2018-09-19T11:54:37.310Z,22.90
2018-09-19T11:57:05.755Z,22.90
2018-09-19T11:59:34.068Z,22.90
2018-09-19T12:02:02.439Z,22.90
2018-09-19T12:04:31.657Z,22.90
2018-09-19T12:06:59.958Z,23.00
2018-09-19T12:09:28.306Z,23.00
2018-09-19T12:11:56.625Z,23.00
2018-09-19T12:14:25.018Z,23.00
2018-09-19T12:16:53.358Z,23.00
2018-09-19T12:19:21.758Z,23.00
2018-09-19T12:21:50.155Z,23.00
2018-09-19T12:24:18.489Z,23.00
2018-09-19T12:26:46.810Z,23.10
2018-09-19T12:29:15.143Z,23.00
2018-09-19T12:31:43.467Z,23.10
2018-09-19T12:34:11.828Z,23.10
2018-09-19T12:36:40.129Z,23.10
2018-09-19T12:39:09.847Z,23.10
2018-09-19T12:41:38.400Z,23.20
2018-09-19T12:44:06.802Z,23.20
2018-09-19T12:46:35.238Z,23.20
2018-09-19T12:49:04.598Z,23.30
2018-09-19T12:51:32.920Z,23.30
2018-09-19T12:54:01.249Z,23.30
2018-09-19T12:56:29.614Z,23.30
2018-09-19T12:58:58.401Z,23.30
2018-09-19T13:01:27.774Z,23.30
2018-09-19T13:03:56.091Z,23.30
2018-09-19T13:06:24.462Z,23.30
2018-09-19T13:08:52.758Z,23.30
2018-09-19T13:11:21.086Z,23.30
2018-09-19T13:13:49.403Z,23.30
2018-09-19T13:16:17.769Z,23.30
2018-09-19T13:18:46.114Z,23.30
2018-09-19T13:21:14.437Z,23.30
2018-09-19T13:23:42.751Z,23.30
2018-09-19T13:26:11.109Z,23.30
2018-09-19T13:28:39.453Z,23.30
2018-09-19T13:31:08.781Z,23.30
2018-09-19T13:33:37.154Z,23.30
2018-09-19T13:36:05.435Z,23.30
2018-09-19T13:38:33.769Z,23.30
2018-09-19T13:41:02.081Z,23.30
2018-09-19T13:43:30.408Z,23.30
2018-09-19T13:45:58.751Z,23.30
2018-09-19T13:48:27.526Z,23.30
2018-09-19T13:50:58.947Z,23.30
2018-09-19T13:53:27.341Z,23.30
2018-09-19T13:55:56.657Z,23.30
2018-09-19T13:58:24.982Z,23.30
2018-09-19T14:00:54.362Z,23.30
2018-09-19T14:03:22.711Z,23.30
2018-09-19T14:05:51.038Z,23.30
2018-09-19T14:08:19.399Z,23.40
2018-09-19T14:10:48.742Z,23.40
2018-09-19T14:13:17.083Z,23.40
2018-09-19T14:15:45.410Z,23.40
2018-09-19T14:18:14.745Z,23.40
2018-09-19T14:20:43.109Z,23.40
2018-09-19T14:23:11.453Z,23.40
2018-09-19T14:25:39.774Z,23.40
2018-09-19T14:28:08.085Z,23.40
2018-09-19T14:30:36.398Z,23.40
2018-09-19T14:33:04.742Z,23.40
2018-09-19T14:35:33.165Z,23.40
2018-09-19T14:38:02.482Z,23.40
2018-09-19T14:40:30.853Z,23.40
2018-09-19T14:42:59.185Z,23.40
2018-09-19T14:45:28.567Z,23.40
2018-09-19T14:47:56.886Z,23.40
2018-09-19T14:50:25.222Z,23.40
2018-09-19T14:52:53.562Z,23.40
2018-09-19T14:55:22.898Z,23.40
2018-09-19T14:57:51.213Z,23.50
2018-09-19T15:00:19.581Z,23.50
2018-09-19T15:02:47.973Z,23.50
2018-09-19T15:05:16.319Z,23.50
2018-09-19T15:07:44.685Z,23.50
2018-09-19T15:10:13.050Z,23.50
2018-09-19T15:12:41.357Z,23.50
2018-09-19T15:15:09.722Z,23.50
2018-09-19T15:17:38.053Z,23.50
2018-09-19T15:20:06.842Z,23.50
2018-09-19T15:22:35.256Z,23.50
2018-09-19T15:25:03.625Z,23.50
2018-09-19T15:27:31.943Z,23.50
2018-09-19T15:30:00.259Z,23.50
2018-09-19T15:32:31.550Z,23.50
2018-09-19T15:34:59.863Z,23.60
2018-09-19T15:37:28.234Z,23.60
2018-09-19T15:39:56.602Z,23.60
2018-09-19T15:42:24.982Z,23.60
2018-09-19T15:44:53.278Z,23.60
2018-09-19T15:47:22.664Z,23.60
2018-09-19T15:49:51.028Z,23.60
2018-09-19T15:52:19.405Z,23.60
2018-09-19T15:54:47.747Z,23.70
2018-09-19T15:57:17.854Z,23.70
2018-09-19T15:59:46.110Z,23.70
2018-09-19T16:02:14.614Z,23.70
2018-09-19T16:04:43.349Z,23.70
2018-09-19T16:07:11.928Z,23.70
2018-09-19T16:09:40.297Z,23.80
2018-09-19T16:12:08.633Z,23.80
2018-09-19T16:14:36.937Z,23.80
2018-09-19T16:17:07.214Z,23.80
2018-09-19T16:19:35.542Z,23.80
2018-09-19T16:22:03.862Z,23.80
2018-09-19T16:24:32.312Z,23.80
2018-09-19T16:27:00.721Z,23.80
2018-09-19T16:29:29.245Z,23.80
2018-09-19T16:31:57.786Z,23.80
2018-09-19T16:34:26.210Z,23.80
2018-09-19T16:36:54.596Z,23.80
2018-09-19T16:39:22.955Z,23.80
2018-09-19T16:41:51.318Z,23.80
2018-09-19T16:44:19.697Z,23.80
2018-09-19T16:46:48.298Z,23.80
2018-09-19T16:49:16.607Z,23.80
2018-09-19T16:51:44.927Z,23.90
2018-09-19T16:54:13.241Z,23.80
2018-09-19T16:56:41.573Z,23.80
2018-09-19T16:59:09.898Z,23.80
2018-09-19T17:01:38.209Z,23.80
2018-09-19T17:04:07.022Z,23.80
2018-09-19T17:06:35.322Z,23.80
2018-09-19T17:09:06.362Z,23.80
2018-09-19T17:11:34.689Z,23.80
2018-09-19T17:14:03.119Z,23.80
2018-09-19T17:16:32.425Z,23.80
2018-09-19T17:19:00.807Z,23.80
2018-09-19T17:21:29.135Z,23.80
2018-09-19T17:23:57.474Z,23.80
2018-09-19T17:26:25.825Z,23.80
2018-09-19T17:28:54.299Z,23.80
2018-09-19T17:31:22.650Z,23.80
2018-09-19T17:33:50.946Z,23.80
2018-09-19T17:36:19.237Z,23.80
2018-09-19T17:38:47.594Z,23.80
2018-09-19T17:41:15.887Z,23.80
2018-09-19T17:43:44.241Z,23.80
2018-09-19T17:46:12.594Z,23.80
2018-09-19T17:48:40.933Z,23.80
2018-09-19T17:51:09.287Z,23.80
2018-09-19T17:53:37.590Z,23.80
2018-09-19T17:56:05.959Z,23.80
2018-09-19T17:58:34.315Z,23.80
2018-09-19T18:01:03.717Z,23.80
2018-09-19T18:03:32.048Z,23.80
2018-09-19T18:06:01.039Z,23.80
2018-09-19T18:08:29.367Z,23.80
2018-09-19T18:10:57.739Z,23.80
2018-09-19T18:13:26.053Z,23.80
2018-09-19T18:15:54.439Z,23.80
2018-09-19T18:18:23.514Z,23.80
2018-09-19T18:20:51.835Z,23.80
2018-09-19T18:23:20.133Z,23.80
2018-09-19T18:25:49.446Z,23.80
2018-09-19T18:28:17.766Z,23.80
2018-09-19T18:30:46.105Z,23.80
2018-09-19T18:33:14.427Z,23.80
2018-09-19T18:35:42.780Z,23.80
2018-09-19T18:38:11.114Z,23.80
2018-09-19T18:40:39.430Z,23.80
2018-09-19T18:43:07.915Z,23.80
2018-09-19T18:45:36.263Z,23.80
2018-09-19T18:48:04.646Z,23.80
2018-09-19T18:50:32.943Z,23.80
2018-09-19T18:53:01.326Z,23.80
2018-09-19T18:55:29.683Z,23.80
2018-09-19T18:57:58.582Z,23.80
2018-09-19T19:00:28.273Z,23.80
2018-09-19T19:02:57.387Z,23.80
2018-09-19T19:05:26.400Z,23.80
2018-09-19T19:07:56.440Z,23.80
2018-09-19T19:10:26.583Z,23.80
2018-09-19T19:12:56.665Z,23.80
2018-09-19T19:15:26.078Z,23.90
2018-09-19T19:17:54.758Z,23.90
2018-09-19T19:20:24.005Z,23.90
2018-09-19T19:22:52.306Z,23.90
2018-09-19T19:25:20.671Z,23.90
2018-09-19T19:27:48.978Z,23.90
2018-09-19T19:30:17.452Z,23.90
2018-09-19T19:32:45.672Z,23.90
2018-09-19T19:35:13.994Z,23.90
2018-09-19T19:37:42.445Z,23.90
2018-09-19T19:40:11.004Z,23.90
2018-09-19T19:42:41.273Z,23.90
2018-09-19T19:45:09.770Z,23.90
2018-09-19T19:47:38.109Z,24.00
2018-09-19T19:50:06.529Z,24.00
2018-09-19T19:52:34.840Z,24.00
2018-09-19T19:55:03.432Z,24.00
2018-09-19T19:57:31.731Z,24.00
2018-09-19T20:00:00.085Z,24.00
2018-09-19T20:02:29.550Z,24.00
2018-09-19T20:04:57.906Z,24.00
2018-09-19T20:07:26.229Z,24.00
2018-09-19T20:09:54.541Z,24.00
2018-09-19T20:12:22.893Z,24.00
2018-09-19T20:14:52.162Z,24.00
2018-09-19T20:17:20.450Z,24.00
2018-09-19T20:19:48.771Z,24.00
2018-09-19T20:22:17.079Z,24.00
2018-09-19T20:24:45.377Z,24.00
2018-09-19T20:27:13.798Z,24.00
2018-09-19T20:29:42.951Z,24.00
2018-09-19T20:32:11.286Z,24.00
2018-09-19T20:34:39.577Z,24.00
2018-09-19T20:37:09.023Z,24.00
2018-09-19T20:39:37.366Z,24.00
2018-09-19T20:42:05.641Z,24.00
2018-09-19T20:44:33.961Z,24.00
2018-09-19T20:47:02.348Z,24.00
2018-09-19T20:49:30.575Z,24.00
2018-09-19T20:51:58.888Z,24.00
2018-09-19T20:54:27.963Z,24.00
2018-09-19T20:56:56.937Z,24.00
2018-09-19T20:59:25.874Z,24.00
2018-09-19T21:01:55.475Z,24.00
2018-09-19T21:04:25.057Z,24.00
2018-09-19T21:06:54.063Z,24.00
2018-09-19T21:09:23.000Z,24.00
2018-09-19T21:11:51.954Z,24.00
2018-09-19T21:14:20.980Z,24.00
2018-09-19T21:16:49.969Z,24.00
2018-09-19T21:19:18.847Z,24.00
2018-09-19T21:21:47.823Z,24.00
2018-09-19T21:24:16.955Z,24.00
2018-09-19T21:26:45.862Z,24.00
2018-09-19T21:29:14.962Z,24.00
2018-09-19T21:31:43.431Z,24.00
2018-09-19T21:34:11.734Z,23.90
2018-09-19T21:36:41.065Z,23.90
2018-09-19T21:39:10.433Z,23.90
2018-09-19T21:41:41.061Z,23.90
2018-09-19T21:44:09.391Z,23.90
2018-09-19T21:46:37.680Z,23.90
2018-09-19T21:49:06.044Z,23.90
2018-09-19T21:51:34.369Z,23.90
2018-09-19T21:54:02.711Z,23.90
2018-09-19T21:56:31.816Z,23.90
2018-09-19T21:59:01.135Z,23.90
2018-09-19T22:01:34.933Z,23.90
2018-09-19T22:04:04.277Z,23.90
2018-09-19T22:06:32.579Z,23.90
2018-09-19T22:09:00.896Z,23.80
2018-09-19T22:11:29.246Z,23.80
2018-09-19T22:13:57.534Z,23.90
2018-09-19T22:16:25.846Z,24.00
2018-09-19T22:18:54.167Z,24.00
2018-09-19T22:21:22.502Z,23.90
2018-09-19T22:23:50.818Z,23.90
2018-09-19T22:26:19.139Z,23.80
2018-09-19T22:28:47.450Z,23.80
2018-09-19T22:31:15.766Z,23.80
2018-09-19T22:33:44.086Z,23.80
2018-09-19T22:36:12.447Z,23.90
2018-09-19T22:38:40.762Z,23.90
2018-09-19T22:41:09.138Z,23.80
2018-09-19T22:43:37.450Z,23.80
2018-09-19T22:46:05.814Z,23.90
2018-09-19T22:48:34.129Z,23.80
2018-09-19T22:51:02.436Z,23.80
2018-09-19T22:53:30.891Z,23.80
2018-09-19T22:55:59.239Z,23.80
2018-09-19T22:58:27.546Z,23.80
2018-09-19T23:00:55.881Z,23.80
2018-09-19T23:03:25.500Z,23.80
2018-09-19T23:05:53.805Z,23.80
2018-09-19T23:08:22.117Z,23.80
2018-09-19T23:10:51.468Z,23.80
2018-09-19T23:13:19.787Z,23.80
2018-09-19T23:15:48.119Z,23.80
2018-09-19T23:18:17.656Z,23.70
2018-09-19T23:20:45.970Z,23.80
2018-09-19T23:23:15.051Z,23.70
2018-09-19T23:25:44.133Z,23.70
2018-09-19T23:28:13.166Z,23.70
2018-09-19T23:30:42.295Z,23.70
2018-09-19T23:33:10.626Z,23.70
2018-09-19T23:35:38.966Z,23.70
2018-09-19T23:38:07.297Z,23.70
2018-09-19T23:40:36.124Z,23.70
2018-09-19T23:43:04.445Z,23.70
2018-09-19T23:45:32.786Z,23.70
2018-09-19T23:48:01.121Z,23.60
2018-09-19T23:50:30.494Z,23.60
2018-09-19T23:52:58.812Z,23.60
2018-09-19T23:55:27.122Z,23.60
2018-09-19T23:57:55.515Z,23.70
